Time,TemperatureF,DewpointF,PressureIn,WindDirection,WindDirectionDegrees,WindSpeedMPH,WindSpeedGustMPH,Humidity,HourlyPrecipIn,Conditions,Clouds,dailyrainin,SoftwareType,DateUTC
2013-01-14 00:16:00,70.1,66.0,30.12,SE,138,1.0,2.0,87,0.00,,,0.00,weatherlink.com 1.10,2013-01-14 05:16:00,
2013-01-14 00:31:00,69.9,66.0,30.12,ESE,117,1.0,2.0,88,0.00,,,0.00,weatherlink.com 1.10,2013-01-14 05:31:00,
2013-01-14 00:46:00,69.7,66.0,30.12,SE,139,1.0,2.0,88,0.00,,,0.00,weatherlink.com 1.10,2013-01-14 05:46:00,
2013-01-14 01:01:00,69.4,66.0,30.12,SE,141,1.0,1.0,89,0.00,,,0.00,weatherlink.com 1.10,2013-01-14 06:01:00,
2013-01-14 01:16:00,68.8,66.0,30.12,SE,130,0.0,1.0,90,0.00,,,0.00,weatherlink.com 1.10,2013-01-14 06:16:00,
2013-01-14 01:31:00,68.5,66.0,30.12,ESE,115,1.0,2.0,90,0.00,,,0.00,weatherlink.com 1.10,2013-01-14 06:31:00,
2013-01-14 01:46:00,68.3,66.0,30.13,ESE,117,0.0,2.0,91,0.00,,,0.00,weatherlink.com 1.10,2013-01-14 06:46:00,
2013-01-14 02:01:00,68.1,65.0,30.13,East,82,2.0,3.0,91,0.00,,,0.00,weatherlink.com 1.10,2013-01-14 07:01:00,
2013-01-14 02:16:00,67.9,65.0,30.14,East,84,0.0,2.0,91,0.00,,,0.00,weatherlink.com 1.10,2013-01-14 07:16:00,
2013-01-14 02:31:00,67.6,65.0,30.14,East,98,0.0,1.0,91,0.00,,,0.00,weatherlink.com 1.10,2013-01-14 07:31:00,
2013-01-14 02:46:00,67.2,65.0,30.14,ENE,74,1.0,2.0,91,0.00,,,0.00,weatherlink.com 1.10,2013-01-14 07:46:00,
2013-01-14 03:01:00,67.0,64.0,30.14,East,91,1.0,2.0,91,0.00,,,0.00,weatherlink.com 1.10,2013-01-14 08:01:00,
2013-01-14 03:17:00,66.7,64.0,30.14,SE,139,1.0,2.0,92,0.00,,,0.00,weatherlink.com 1.10,2013-01-14 08:17:00,
2013-01-14 03:32:00,66.5,64.0,30.13,SE,142,1.0,2.0,91,0.00,,,0.00,weatherlink.com 1.10,2013-01-14 08:32:00,
2013-01-14 03:47:00,66.4,64.0,30.13,SE,125,1.0,1.0,91,0.00,,,0.00,weatherlink.com 1.10,2013-01-14 08:47:00,
2013-01-14 04:02:00,66.3,64.0,30.13,ESE,118,0.0,2.0,91,0.00,,,0.00,weatherlink.com 1.10,2013-01-14 09:02:00,
2013-01-14 04:17:00,66.4,64.0,30.13,SE,139,0.0,2.0,90,0.00,,,0.00,weatherlink.com 1.10,2013-01-14 09:17:00,
2013-01-14 04:32:00,66.2,64.0,30.12,ENE,65,1.0,2.0,91,0.00,,,0.00,weatherlink.com 1.10,2013-01-14 09:32:00,
2013-01-14 04:47:00,66.0,63.0,30.12,ENE,77,0.0,2.0,91,0.00,,,0.00,weatherlink.com 1.10,2013-01-14 09:47:00,
2013-01-14 05:02:00,66.0,63.0,30.12,SE,130,1.0,4.0,90,0.00,,,0.00,weatherlink.com 1.10,2013-01-14 10:02:00,
2013-01-14 05:17:00,65.7,63.0,30.12,East,95,2.0,5.0,90,0.00,,,0.00,weatherlink.com 1.10,2013-01-14 10:17:00,
2013-01-14 05:32:00,65.3,62.0,30.12,East,82,1.0,3.0,90,0.00,,,0.00,weatherlink.com 1.10,2013-01-14 10:32:00,
2013-01-14 05:47:00,65.1,62.0,30.12,East,91,0.0,5.0,90,0.00,,,0.00,weatherlink.com 1.10,2013-01-14 10:47:00,
2013-01-14 06:02:00,65.1,62.0,30.12,ESE,105,1.0,4.0,90,0.00,,,0.00,weatherlink.com 1.10,2013-01-14 11:02:00,
2013-01-14 06:17:00,64.8,62.0,30.12,ESE,103,0.0,4.0,90,0.00,,,0.00,weatherlink.com 1.10,2013-01-14 11:17:00,
2013-01-14 06:32:00,64.5,62.0,30.13,ESE,114,0.0,3.0,91,0.00,,,0.00,weatherlink.com 1.10,2013-01-14 11:32:00,
2013-01-14 06:47:00,64.3,62.0,30.13,SE,135,0.0,1.0,91,0.00,,,0.00,weatherlink.com 1.10,2013-01-14 11:47:00,
2013-01-14 07:02:00,64.5,62.0,30.13,ESE,113,1.0,3.0,91,0.00,,,0.00,weatherlink.com 1.10,2013-01-14 12:02:00,
2013-01-14 07:17:00,64.6,62.0,30.14,SE,132,0.0,6.0,91,0.00,,,0.00,weatherlink.com 1.10,2013-01-14 12:17:00,
2013-01-14 07:32:00,64.9,62.0,30.14,ESE,115,1.0,3.0,91,0.00,,,0.00,weatherlink.com 1.10,2013-01-14 12:32:00,
2013-01-14 07:47:00,65.0,62.0,30.14,ENE,63,0.0,3.0,91,0.00,,,0.00,weatherlink.com 1.10,2013-01-14 12:47:00,
2013-01-14 08:02:00,64.9,63.0,30.15,ESE,123,0.0,1.0,92,0.00,,,0.00,weatherlink.com 1.10,2013-01-14 13:02:00,
2013-01-14 08:17:00,65.3,63.0,30.16,East,89,0.0,2.0,92,0.00,,,0.00,weatherlink.com 1.10,2013-01-14 13:17:00,
2013-01-14 08:32:00,66.3,64.0,30.16,ENE,60,3.0,4.0,91,0.00,,,0.00,weatherlink.com 1.10,2013-01-14 13:32:00,
2013-01-14 08:47:00,67.5,64.0,30.16,SE,136,0.0,4.0,89,0.00,,,0.00,weatherlink.com 1.10,2013-01-14 13:47:00,
2013-01-14 09:02:00,68.7,64.0,30.17,SE,137,0.0,3.0,86,0.00,,,0.00,weatherlink.com 1.10,2013-01-14 14:02:00,
2013-01-14 09:17:00,69.8,64.0,30.18,ENE,65,1.0,4.0,83,0.00,,,0.00,weatherlink.com 1.10,2013-01-14 14:17:00,
2013-01-14 09:32:00,70.6,65.0,30.18,East,97,1.0,5.0,82,0.00,,,0.00,weatherlink.com 1.10,2013-01-14 14:32:00,
2013-01-14 09:47:00,72.0,65.0,30.18,ESE,116,3.0,7.0,79,0.00,,,0.00,weatherlink.com 1.10,2013-01-14 14:47:00,
2013-01-14 10:02:00,73.3,66.0,30.17,SE,127,1.0,6.0,79,0.00,,,0.00,weatherlink.com 1.10,2013-01-14 15:02:00,
2013-01-14 10:17:00,74.9,67.0,30.18,ESE,123,1.0,6.0,75,0.00,,,0.00,weatherlink.com 1.10,2013-01-14 15:17:00,
2013-01-14 10:33:00,75.3,66.0,30.18,SE,138,2.0,9.0,73,0.00,,,0.00,weatherlink.com 1.10,2013-01-14 15:33:00,
2013-01-14 10:47:00,76.5,67.0,30.17,SSW,208,2.0,7.0,73,0.00,,,0.00,weatherlink.com 1.10,2013-01-14 15:47:00,
2013-01-14 11:02:00,76.9,67.0,30.17,SSE,150,3.0,7.0,71,0.00,,,0.00,weatherlink.com 1.10,2013-01-14 16:02:00,
2013-01-14 11:17:00,77.8,67.0,30.16,SE,141,2.0,8.0,70,0.00,,,0.00,weatherlink.com 1.10,2013-01-14 16:17:00,
2013-01-14 11:33:00,78.2,67.0,30.16,WSW,237,0.0,8.0,69,0.00,,,0.00,weatherlink.com 1.10,2013-01-14 16:33:00,
2013-01-14 11:48:00,78.2,65.0,30.15,SSE,159,3.0,7.0,63,0.00,,,0.00,weatherlink.com 1.10,2013-01-14 16:48:00,
2013-01-14 12:03:00,78.2,64.0,30.15,SE,136,5.0,9.0,61,0.00,,,0.00,weatherlink.com 1.10,2013-01-14 17:03:00,
2013-01-14 12:18:00,77.7,63.0,30.15,SSE,158,7.0,9.0,61,0.00,,,0.00,weatherlink.com 1.10,2013-01-14 17:18:00,
2013-01-14 12:33:00,78.1,63.0,30.14,SSE,165,5.0,9.0,60,0.00,,,0.00,weatherlink.com 1.10,2013-01-14 17:33:00,
2013-01-14 12:48:00,78.1,62.0,30.14,South,179,3.0,10.0,59,0.00,,,0.00,weatherlink.com 1.10,2013-01-14 17:48:00,
2013-01-14 13:03:00,78.1,62.0,30.14,SW,228,3.0,11.0,58,0.00,,,0.00,weatherlink.com 1.10,2013-01-14 18:03:00,
2013-01-14 13:18:00,78.1,62.0,30.13,WSW,240,2.0,9.0,59,0.00,,,0.00,weatherlink.com 1.10,2013-01-14 18:18:00,
2013-01-14 13:33:00,78.4,63.0,30.13,SSW,203,3.0,8.0,59,0.00,,,0.00,weatherlink.com 1.10,2013-01-14 18:33:00,
2013-01-14 13:48:00,78.6,62.0,30.12,SSW,205,3.0,10.0,57,0.00,,,0.00,weatherlink.com 1.10,2013-01-14 18:48:00,
2013-01-14 14:03:00,78.8,62.0,30.12,SW,221,7.0,9.0,56,0.00,,,0.00,weatherlink.com 1.10,2013-01-14 19:03:00,
2013-01-14 14:18:00,79.0,62.0,30.12,SW,226,5.0,8.0,56,0.00,,,0.00,weatherlink.com 1.10,2013-01-14 19:18:00,
2013-01-14 14:33:00,78.7,62.0,30.12,South,186,7.0,10.0,56,0.00,,,0.00,weatherlink.com 1.10,2013-01-14 19:33:00,
2013-01-14 14:48:00,78.9,62.0,30.12,SSW,211,3.0,7.0,56,0.00,,,0.00,weatherlink.com 1.10,2013-01-14 19:48:00,
2013-01-14 15:03:00,78.6,62.0,30.12,SW,232,4.0,7.0,58,0.00,,,0.00,weatherlink.com 1.10,2013-01-14 20:03:00,
2013-01-14 15:18:00,78.3,62.0,30.12,SSE,166,3.0,7.0,57,0.00,,,0.00,weatherlink.com 1.10,2013-01-14 20:18:00,
2013-01-14 15:33:00,78.6,63.0,30.12,SSE,162,3.0,5.0,59,0.00,,,0.00,weatherlink.com 1.10,2013-01-14 20:33:00,
2013-01-14 15:48:00,78.5,63.0,30.12,SW,221,3.0,7.0,59,0.00,,,0.00,weatherlink.com 1.10,2013-01-14 20:48:00,
2013-01-14 16:03:00,78.1,63.0,30.12,SSE,160,3.0,5.0,61,0.00,,,0.00,weatherlink.com 1.10,2013-01-14 21:03:00,
2013-01-14 16:18:00,77.8,63.0,30.13,SW,219,2.0,5.0,61,0.00,,,0.00,weatherlink.com 1.10,2013-01-14 21:18:00,
2013-01-14 16:33:00,78.0,64.0,30.13,SW,228,1.0,4.0,62,0.00,,,0.00,weatherlink.com 1.10,2013-01-14 21:33:00,
2013-01-14 16:48:00,77.6,63.0,30.13,South,190,4.0,5.0,62,0.00,,,0.00,weatherlink.com 1.10,2013-01-14 21:48:00,
2013-01-14 17:03:00,77.4,64.0,30.13,SSW,200,1.0,5.0,64,0.00,,,0.00,weatherlink.com 1.10,2013-01-14 22:03:00,
2013-01-14 17:18:00,76.2,64.0,30.14,SW,219,4.0,4.0,65,0.00,,,0.00,weatherlink.com 1.10,2013-01-14 22:18:00,
2013-01-14 17:33:00,74.6,64.0,30.14,SSE,167,2.0,4.0,69,0.00,,,0.00,weatherlink.com 1.10,2013-01-14 22:33:00,
2013-01-14 17:48:00,73.7,64.0,30.14,SSW,201,1.0,4.0,71,0.00,,,0.00,weatherlink.com 1.10,2013-01-14 22:48:00,
2013-01-14 18:03:00,73.0,64.0,30.14,SSW,203,2.0,5.0,73,0.00,,,0.00,weatherlink.com 1.10,2013-01-14 23:03:00,
2013-01-14 18:18:00,72.4,64.0,30.14,South,190,1.0,3.0,75,0.00,,,0.00,weatherlink.com 1.10,2013-01-14 23:18:00,
2013-01-14 18:33:00,71.8,64.0,30.14,South,174,2.0,4.0,77,0.00,,,0.00,weatherlink.com 1.10,2013-01-14 23:33:00,
2013-01-14 18:48:00,71.7,65.0,30.14,SE,132,3.0,4.0,78,0.00,,,0.00,weatherlink.com 1.10,2013-01-14 23:48:00,
2013-01-14 19:03:00,71.6,64.0,30.14,SSE,158,0.0,4.0,77,0.00,,,0.00,weatherlink.com 1.10,2013-01-15 00:03:00,
2013-01-14 19:18:00,71.4,64.0,30.14,SE,139,1.0,3.0,77,0.00,,,0.00,weatherlink.com 1.10,2013-01-15 00:18:00,
2013-01-14 19:33:00,71.2,64.0,30.14,SSW,193,1.0,3.0,77,0.00,,,0.00,weatherlink.com 1.10,2013-01-15 00:33:00,
2013-01-14 19:48:00,70.9,64.0,30.14,SE,139,1.0,2.0,78,0.00,,,0.00,weatherlink.com 1.10,2013-01-15 00:48:00,
2013-01-14 20:03:00,70.6,63.0,30.13,SSE,162,1.0,2.0,78,0.00,,,0.00,weatherlink.com 1.10,2013-01-15 01:03:00,
2013-01-14 20:18:00,70.2,63.0,30.13,SE,141,0.0,1.0,79,0.00,,,0.00,weatherlink.com 1.10,2013-01-15 01:18:00,
2013-01-14 20:33:00,69.6,64.0,30.13,SE,141,0.0,0.0,82,0.00,,,0.00,weatherlink.com 1.10,2013-01-15 01:33:00,
2013-01-14 20:48:00,68.8,64.0,30.13,SE,141,0.0,0.0,84,0.00,,,0.00,weatherlink.com 1.10,2013-01-15 01:48:00,
2013-01-14 21:03:00,68.0,64.0,30.14,SE,141,0.0,0.0,86,0.00,,,0.00,weatherlink.com 1.10,2013-01-15 02:03:00,
2013-01-14 21:18:00,67.6,64.0,30.14,SE,139,0.0,1.0,87,0.00,,,0.00,weatherlink.com 1.10,2013-01-15 02:18:00,
2013-01-14 21:33:00,66.7,63.0,30.14,SE,129,0.0,1.0,88,0.00,,,0.00,weatherlink.com 1.10,2013-01-15 02:33:00,
2013-01-14 21:48:00,66.1,63.0,30.15,SE,127,0.0,0.0,88,0.00,,,0.00,weatherlink.com 1.10,2013-01-15 02:48:00,
2013-01-14 22:03:00,65.8,63.0,30.15,SE,126,0.0,0.0,90,0.00,,,0.00,weatherlink.com 1.10,2013-01-15 03:03:00,
2013-01-14 22:18:00,65.6,63.0,30.15,ESE,120,0.0,1.0,91,0.00,,,0.00,weatherlink.com 1.10,2013-01-15 03:18:00,
2013-01-14 22:33:00,65.4,63.0,30.15,ESE,118,0.0,0.0,91,0.00,,,0.00,weatherlink.com 1.10,2013-01-15 03:33:00,
2013-01-14 22:48:00,64.8,63.0,30.15,ESE,118,0.0,0.0,92,0.00,,,0.00,weatherlink.com 1.10,2013-01-15 03:48:00,
2013-01-14 23:03:00,64.6,62.0,30.15,ESE,118,0.0,0.0,92,0.00,,,0.00,weatherlink.com 1.10,2013-01-15 04:03:00,
2013-01-14 23:18:00,64.5,63.0,30.14,ESE,117,0.0,1.0,93,0.00,,,0.00,weatherlink.com 1.10,2013-01-15 04:18:00,
2013-01-14 23:33:00,65.8,63.0,30.14,East,96,1.0,2.0,90,0.00,,,0.00,weatherlink.com 1.10,2013-01-15 04:33:00,
2013-01-14 23:48:00,66.2,62.0,30.14,East,82,0.0,1.0,86,0.00,,,0.00,weatherlink.com 1.10,2013-01-15 04:48:00,